createdAt,value
2022-11-15T00:01:31.102Z,10.32
2022-11-15T00:04:17.028Z,9.05
2022-11-15T00:07:01.927Z,9.75
2022-11-15T00:09:47.100Z,9.40
2022-11-15T00:12:32.271Z,9.00
2022-11-15T00:15:17.299Z,9.50
2022-11-15T00:18:03.171Z,9.73
2022-11-15T00:20:48.354Z,10.48
2022-11-15T00:23:34.966Z,10.70
2022-11-15T00:26:19.826Z,10.90
2022-11-15T00:29:05.109Z,10.25
2022-11-15T00:31:50.393Z,10.75
2022-11-15T00:34:35.555Z,11.18
2022-11-15T00:37:20.718Z,11.85
2022-11-15T00:40:06.603Z,11.65
2022-11-15T00:42:51.994Z,11.75
2022-11-15T00:45:37.209Z,10.63
2022-11-15T00:48:22.415Z,11.20
2022-11-15T00:51:07.802Z,11.85
2022-11-15T00:53:52.938Z,12.10
2022-11-15T00:56:38.158Z,12.38
2022-11-15T00:59:23.188Z,12.27
2022-11-15T01:02:08.425Z,13.07
2022-11-15T01:04:53.676Z,12.82
2022-11-15T01:07:38.973Z,12.43
2022-11-15T01:10:24.829Z,12.15
2022-11-15T01:13:10.115Z,11.57
2022-11-15T01:15:55.362Z,11.50
2022-11-15T01:18:41.109Z,10.25
2022-11-15T01:21:26.639Z,9.82
2022-11-15T01:24:13.605Z,9.18
2022-11-15T01:26:58.784Z,8.93
2022-11-15T01:29:44.046Z,8.43
2022-11-15T01:32:29.401Z,8.32
2022-11-15T01:35:14.719Z,8.02
2022-11-15T01:38:00.022Z,8.50
2022-11-15T01:40:45.187Z,8.35
2022-11-15T01:43:33.978Z,7.43
2022-11-15T01:46:27.185Z,8.23
2022-11-15T01:49:18.709Z,7.40
2022-11-15T01:52:07.359Z,7.18
2022-11-15T01:55:00.095Z,6.82
2022-11-15T01:57:48.856Z,6.97
2022-11-15T02:00:34.560Z,6.68
2022-11-15T02:03:21.327Z,6.72
2022-11-15T02:06:06.476Z,6.47
2022-11-15T02:08:52.587Z,6.60
2022-11-15T02:11:38.131Z,6.30
2022-11-15T02:14:26.436Z,6.00
2022-11-15T02:17:23.635Z,6.07
2022-11-15T02:20:26.880Z,5.78
2022-11-15T02:23:34.616Z,6.13
2022-11-15T02:26:29.064Z,5.85
2022-11-15T02:29:24.315Z,5.72
2022-11-15T02:32:28.420Z,5.95
2022-11-15T02:35:36.402Z,5.78
2022-11-15T02:38:45.739Z,5.60
2022-11-15T02:41:36.436Z,5.78
2022-11-15T02:44:32.058Z,5.60
2022-11-15T02:47:18.793Z,5.35
2022-11-15T02:50:10.883Z,5.40
2022-11-15T02:52:56.488Z,5.70
2022-11-15T02:55:48.927Z,4.30
2022-11-15T02:58:58.680Z,5.22
2022-11-15T03:02:15.053Z,4.78
2022-11-15T03:05:26.488Z,4.43
2022-11-15T03:08:24.555Z,5.25
2022-11-15T03:11:13.705Z,5.03
2022-11-15T03:14:21.287Z,6.43
2022-11-15T03:17:29.418Z,5.55
2022-11-15T03:20:18.192Z,5.45
2022-11-15T03:23:08.948Z,5.45
2022-11-15T03:25:56.327Z,5.68
2022-11-15T03:28:59.771Z,6.18
2022-11-15T03:31:51.189Z,4.90
2022-11-15T03:34:46.310Z,4.97
2022-11-15T03:37:37.291Z,6.13
2022-11-15T03:40:30.354Z,5.45
2022-11-15T03:43:29.880Z,4.72
2022-11-15T03:46:20.846Z,3.70
2022-11-15T03:49:20.171Z,3.83
2022-11-15T03:52:06.170Z,3.50
2022-11-15T03:54:57.049Z,3.50
2022-11-15T03:57:42.043Z,3.85
2022-11-15T04:00:28.723Z,3.47
2022-11-15T04:03:13.607Z,3.38
2022-11-15T04:05:58.942Z,3.80
2022-11-15T04:08:44.249Z,3.67
2022-11-15T04:11:29.587Z,3.75
2022-11-15T04:14:14.899Z,3.30
2022-11-15T04:17:00.048Z,3.35
2022-11-15T04:20:17.436Z,3.15
2022-11-15T04:23:24.462Z,3.20
2022-11-15T04:26:14.006Z,3.40
2022-11-15T04:29:17.723Z,3.65
2022-11-15T04:32:05.107Z,3.40
2022-11-15T04:34:50.449Z,3.92
2022-11-15T04:37:35.751Z,3.30
2022-11-15T04:40:21.142Z,3.72
2022-11-15T04:43:06.556Z,3.80
2022-11-15T04:45:51.887Z,3.53
2022-11-15T04:48:36.803Z,3.80
2022-11-15T04:51:22.125Z,3.80
2022-11-15T04:54:07.671Z,4.03
2022-11-15T04:56:52.990Z,7.60
2022-11-15T04:59:38.300Z,6.73
2022-11-15T05:02:23.719Z,6.67
2022-11-15T05:05:09.186Z,4.17
2022-11-15T05:07:54.516Z,4.13
2022-11-15T05:10:39.730Z,4.37
2022-11-15T05:13:25.154Z,4.60
2022-11-15T05:16:10.097Z,4.50
2022-11-15T05:18:55.981Z,4.03
2022-11-15T05:21:41.489Z,4.30
2022-11-15T05:24:26.596Z,4.30
2022-11-15T05:27:11.822Z,3.97
2022-11-15T05:29:56.847Z,3.97
2022-11-15T05:32:41.994Z,4.30
2022-11-15T05:35:38.005Z,3.93
2022-11-15T05:38:24.523Z,4.10
2022-11-15T05:41:09.842Z,4.07
2022-11-15T05:43:55.075Z,4.10
2022-11-15T05:46:41.703Z,4.10
2022-11-15T05:49:32.647Z,4.57
2022-11-15T05:52:22.903Z,4.60
2022-11-15T05:55:09.682Z,4.73
2022-11-15T05:57:54.663Z,4.57
2022-11-15T06:00:40.300Z,5.07
2022-11-15T06:03:25.553Z,4.57
2022-11-15T06:06:16.118Z,3.75
2022-11-15T06:09:01.858Z,4.50
2022-11-15T06:11:47.043Z,4.40
2022-11-15T06:14:32.305Z,4.30
2022-11-15T06:17:17.584Z,4.40
2022-11-15T06:20:02.779Z,4.70
2022-11-15T06:22:47.922Z,4.35
2022-11-15T06:25:32.816Z,4.20
2022-11-15T06:28:17.956Z,4.25
2022-11-15T06:31:07.895Z,4.25
2022-11-15T06:33:53.288Z,4.78
2022-11-15T06:36:38.793Z,4.53
2022-11-15T06:39:23.869Z,4.47
2022-11-15T06:42:09.794Z,4.57
2022-11-15T06:44:55.187Z,4.63
2022-11-15T06:47:47.761Z,3.87
2022-11-15T06:50:33.128Z,4.20
2022-11-15T06:53:18.496Z,4.13
2022-11-15T06:56:06.294Z,4.32
2022-11-15T06:58:51.527Z,3.83
2022-11-15T07:01:36.597Z,3.87
2022-11-15T07:04:22.119Z,3.70
2022-11-15T07:07:07.597Z,5.07
2022-11-15T07:09:52.801Z,4.68
2022-11-15T07:12:38.097Z,4.00
2022-11-15T07:15:27.334Z,4.40
2022-11-15T07:18:12.539Z,4.10
2022-11-15T07:21:02.186Z,4.50
2022-11-15T07:23:47.563Z,5.13
2022-11-15T07:26:33.352Z,5.32
2022-11-15T07:29:18.855Z,4.82
2022-11-15T07:32:03.917Z,4.90
2022-11-15T07:34:49.139Z,5.80
2022-11-15T07:37:34.426Z,5.30
2022-11-15T07:40:19.708Z,4.68
2022-11-15T07:43:06.742Z,4.97
2022-11-15T07:45:57.541Z,4.80
2022-11-15T07:48:45.410Z,6.82
2022-11-15T07:51:31.052Z,6.97
2022-11-15T07:54:16.491Z,7.13
2022-11-15T07:57:07.004Z,4.85
2022-11-15T07:59:52.987Z,4.95
2022-11-15T08:02:38.477Z,5.05
2022-11-15T08:05:23.499Z,4.38
2022-11-15T08:08:10.757Z,4.70
2022-11-15T08:10:59.032Z,4.75
2022-11-15T08:13:44.464Z,5.32
2022-11-15T08:16:29.551Z,5.10
2022-11-15T08:19:15.097Z,4.70
2022-11-15T08:22:00.243Z,4.78
2022-11-15T08:24:45.618Z,4.78
2022-11-15T08:27:30.728Z,4.53
2022-11-15T08:30:17.085Z,4.78
2022-11-15T08:33:02.479Z,4.45
2022-11-15T08:35:47.808Z,3.90
2022-11-15T08:38:33.809Z,4.43
2022-11-15T08:41:37.840Z,4.35
2022-11-15T08:44:23.388Z,3.60
2022-11-15T08:47:11.743Z,3.67
2022-11-15T08:49:56.569Z,3.53
2022-11-15T08:52:41.834Z,3.63
2022-11-15T08:55:27.159Z,3.33
2022-11-15T08:58:12.522Z,3.80
2022-11-15T09:00:57.884Z,3.30
2022-11-15T09:03:43.068Z,3.15
2022-11-15T09:06:28.476Z,3.42
2022-11-15T09:09:13.782Z,3.13
2022-11-15T09:12:02.457Z,3.00
2022-11-15T09:14:48.006Z,3.08
2022-11-15T09:17:33.098Z,2.78
2022-11-15T09:20:18.202Z,3.20
2022-11-15T09:23:05.186Z,3.00
2022-11-15T09:25:50.336Z,2.80
2022-11-15T09:28:37.367Z,2.70
2022-11-15T09:31:22.518Z,3.25
2022-11-15T09:34:07.577Z,3.58
2022-11-15T09:36:52.911Z,3.15
2022-11-15T09:39:38.066Z,3.75
2022-11-15T09:42:31.495Z,3.10
2022-11-15T09:45:43.832Z,2.95
2022-11-15T09:49:02.636Z,2.90
2022-11-15T09:51:54.174Z,3.00
2022-11-15T09:54:52.302Z,3.28
2022-11-15T09:57:23.693Z,3.17
2022-11-15T10:00:31.348Z,3.13
2022-11-15T10:03:03.971Z,3.08
2022-11-15T10:05:40.480Z,3.05
2022-11-15T10:08:36.640Z,3.00
2022-11-15T10:11:36.023Z,3.25
2022-11-15T10:14:03.727Z,3.08
2022-11-15T10:17:07.546Z,2.97
2022-11-15T10:20:07.756Z,3.30
2022-11-15T10:22:45.854Z,3.17
2022-11-15T10:25:18.448Z,3.25
2022-11-15T10:27:52.211Z,3.25
2022-11-15T10:30:19.653Z,3.10
2022-11-15T10:32:48.468Z,2.95
2022-11-15T10:35:32.999Z,2.70
2022-11-15T10:38:11.604Z,2.90
2022-11-15T10:40:40.419Z,2.72
2022-11-15T10:43:14.739Z,2.70
2022-11-15T10:45:42.107Z,2.65
2022-11-15T10:48:29.344Z,3.00
2022-11-15T10:50:57.264Z,2.40
2022-11-15T10:53:34.461Z,2.40
2022-11-15T10:56:07.894Z,2.50
2022-11-15T10:58:37.183Z,2.33
2022-11-15T11:01:16.911Z,2.00
2022-11-15T11:03:45.979Z,2.10
2022-11-15T11:06:16.482Z,2.20
2022-11-15T11:09:03.543Z,1.95
2022-11-15T11:11:49.232Z,2.00
2022-11-15T11:14:28.673Z,1.85
2022-11-15T11:17:07.277Z,2.10
2022-11-15T11:19:58.722Z,1.55
2022-11-15T11:23:02.796Z,1.58
2022-11-15T11:26:12.551Z,1.60
2022-11-15T11:29:07.556Z,1.50
2022-11-15T11:31:45.078Z,1.40
2022-11-15T11:34:56.504Z,1.40
2022-11-15T11:37:32.341Z,1.30
2022-11-15T11:40:16.904Z,1.60
2022-11-15T11:43:20.927Z,1.33
2022-11-15T11:46:15.872Z,1.38
2022-11-15T11:48:52.776Z,1.30
2022-11-15T11:51:32.231Z,1.50
2022-11-15T11:54:26.832Z,1.45
2022-11-15T11:56:55.007Z,1.63
2022-11-15T11:59:34.868Z,1.58
2022-11-15T12:02:24.814Z,1.52
2022-11-15T12:04:58.668Z,1.50
2022-11-15T12:07:29.122Z,1.33
2022-11-15T12:10:21.774Z,1.60
2022-11-15T12:12:54.200Z,1.30
2022-11-15T12:15:28.484Z,1.45
2022-11-15T12:17:57.918Z,1.30
2022-11-15T12:20:27.770Z,1.40
2022-11-15T12:23:00.188Z,1.55
2022-11-15T12:25:42.361Z,1.60
2022-11-15T12:28:15.133Z,1.50
2022-11-15T12:30:47.895Z,1.33
2022-11-15T12:33:50.754Z,1.60
2022-11-15T12:36:23.288Z,1.58
2022-11-15T12:38:52.531Z,1.80
2022-11-15T12:41:20.453Z,1.60
2022-11-15T12:43:49.029Z,1.52
2022-11-15T12:46:42.290Z,1.50
2022-11-15T12:49:31.969Z,1.30
2022-11-15T12:51:58.560Z,1.40
2022-11-15T12:54:25.118Z,1.30
2022-11-15T12:57:04.016Z,1.50
2022-11-15T12:59:51.796Z,1.13
2022-11-15T13:02:22.688Z,1.60
2022-11-15T13:04:50.672Z,1.90
2022-11-15T13:07:35.856Z,1.30
2022-11-15T13:10:31.227Z,1.50
2022-11-15T13:13:08.276Z,1.48
2022-11-15T13:15:55.393Z,1.40
2022-11-15T13:18:24.917Z,1.52
2022-11-15T13:20:51.586Z,1.67
2022-11-15T13:23:18.320Z,1.65
2022-11-15T13:26:11.366Z,1.40
2022-11-15T13:28:46.283Z,1.50
2022-11-15T13:31:26.570Z,2.00
2022-11-15T13:33:56.007Z,1.33
2022-11-15T13:36:35.093Z,1.30
2022-11-15T13:39:26.478Z,1.80
2022-11-15T13:41:53.759Z,2.10
2022-11-15T13:44:23.596Z,1.80
2022-11-15T13:47:02.983Z,2.13
2022-11-15T13:49:33.883Z,2.60
2022-11-15T13:52:05.673Z,2.25
2022-11-15T13:54:45.804Z,1.85
2022-11-15T13:57:21.849Z,1.77
2022-11-15T13:59:52.883Z,1.73
2022-11-15T14:02:27.865Z,1.95
2022-11-15T14:05:20.820Z,1.92
2022-11-15T14:08:22.899Z,1.95
2022-11-15T14:10:49.700Z,1.80
2022-11-15T14:13:31.296Z,2.30
2022-11-15T14:16:19.335Z,2.30
2022-11-15T14:18:46.366Z,2.10
2022-11-15T14:21:13.372Z,2.10
2022-11-15T14:23:40.281Z,2.85
2022-11-15T14:26:11.873Z,2.40
2022-11-15T14:28:41.475Z,2.20
2022-11-15T14:31:14.158Z,1.98
2022-11-15T14:33:42.153Z,3.70
2022-11-15T14:36:20.907Z,2.30
2022-11-15T14:38:48.471Z,2.03
2022-11-15T14:41:27.324Z,2.10
2022-11-15T14:43:54.657Z,2.10
2022-11-15T14:46:21.283Z,2.35
2022-11-15T14:48:47.889Z,2.78
2022-11-15T14:51:18.074Z,2.90
2022-11-15T14:53:46.226Z,3.50
2022-11-15T14:56:13.303Z,2.83
2022-11-15T14:58:40.160Z,3.28
2022-11-15T15:01:21.283Z,3.85
2022-11-15T15:03:47.967Z,3.50
2022-11-15T15:06:17.920Z,4.20
2022-11-15T15:08:45.942Z,4.32
2022-11-15T15:11:24.561Z,4.45
2022-11-15T15:13:52.264Z,5.10
2022-11-15T15:16:19.212Z,5.00
2022-11-15T15:18:45.971Z,4.97
2022-11-15T15:21:33.756Z,5.25
2022-11-15T15:24:02.899Z,5.20
2022-11-15T15:26:29.489Z,5.45
2022-11-15T15:28:56.092Z,5.28
2022-11-15T15:31:22.720Z,5.60
2022-11-15T15:33:49.406Z,6.20
2022-11-15T15:36:19.503Z,5.85
2022-11-15T15:38:47.658Z,5.75
2022-11-15T15:41:17.836Z,5.80
2022-11-15T15:43:44.924Z,5.53
2022-11-15T15:46:17.055Z,6.10
2022-11-15T15:48:43.967Z,6.38
2022-11-15T15:51:17.022Z,5.55
2022-11-15T15:53:46.985Z,6.18
2022-11-15T15:56:13.600Z,6.22
2022-11-15T15:58:40.179Z,6.78
2022-11-15T16:01:06.896Z,6.60
2022-11-15T16:03:33.888Z,6.60
2022-11-15T16:06:00.570Z,6.68
2022-11-15T16:08:42.448Z,6.40
2022-11-15T16:11:17.581Z,6.20
2022-11-15T16:13:44.387Z,6.30
2022-11-15T16:16:14.314Z,7.60
2022-11-15T16:18:40.937Z,6.65
2022-11-15T16:21:09.480Z,5.95
2022-11-15T16:23:36.138Z,5.78
2022-11-15T16:26:04.045Z,4.70
2022-11-15T16:28:33.906Z,4.50
2022-11-15T16:31:03.020Z,5.13
2022-11-15T16:33:29.883Z,4.95
2022-11-15T16:35:56.682Z,4.63
2022-11-15T16:38:23.335Z,4.45
2022-11-15T16:40:49.957Z,4.47
2022-11-15T16:43:16.971Z,4.32
2022-11-15T16:45:43.843Z,4.30
2022-11-15T16:48:26.942Z,4.47
2022-11-15T16:50:58.519Z,4.43
2022-11-15T16:53:26.523Z,4.60
2022-11-15T16:55:54.329Z,4.50
2022-11-15T16:58:21.196Z,4.53
2022-11-15T17:00:52.288Z,4.60
2022-11-15T17:03:19.604Z,4.00
2022-11-15T17:05:46.225Z,4.25
2022-11-15T17:08:12.841Z,4.40
2022-11-15T17:10:44.214Z,4.10
2022-11-15T17:13:12.982Z,3.58
2022-11-15T17:15:39.795Z,3.60
2022-11-15T17:18:06.626Z,4.15
2022-11-15T17:20:33.675Z,3.45
2022-11-15T17:23:00.256Z,3.40
2022-11-15T17:25:26.854Z,3.03
2022-11-15T17:27:53.435Z,3.40
2022-11-15T17:30:20.395Z,3.08
2022-11-15T17:32:49.921Z,3.22
2022-11-15T17:35:16.591Z,2.97
2022-11-15T17:37:44.315Z,3.00
2022-11-15T17:40:11.404Z,2.70
2022-11-15T17:42:41.155Z,2.80
2022-11-15T17:45:10.410Z,3.03
2022-11-15T17:47:37.744Z,3.10
2022-11-15T17:50:04.994Z,3.03
2022-11-15T17:52:31.663Z,3.10
2022-11-15T17:54:58.271Z,3.30
2022-11-15T17:57:24.871Z,3.33
2022-11-15T17:59:51.517Z,2.90
2022-11-15T18:02:19.410Z,3.33
2022-11-15T18:04:46.011Z,3.55
2022-11-15T18:07:14.119Z,3.38
2022-11-15T18:09:44.116Z,3.80
2022-11-15T18:12:11.546Z,4.28
2022-11-15T18:14:38.175Z,4.20
2022-11-15T18:17:04.727Z,4.30
2022-11-15T18:19:31.384Z,4.68
2022-11-15T18:21:58.890Z,4.55
2022-11-15T18:24:32.471Z,4.80
2022-11-15T18:27:00.495Z,5.00
2022-11-15T18:29:27.874Z,5.30
2022-11-15T18:31:55.785Z,4.75
2022-11-15T18:34:31.903Z,4.78
2022-11-15T18:36:58.749Z,5.53
2022-11-15T18:39:25.350Z,5.00
2022-11-15T18:41:52.301Z,4.32
2022-11-15T18:44:18.947Z,4.38
2022-11-15T18:46:45.908Z,4.30
2022-11-15T18:49:14.622Z,4.95
2022-11-15T18:51:42.168Z,4.35
2022-11-15T18:54:11.186Z,4.38
2022-11-15T18:56:38.491Z,4.20
2022-11-15T18:59:06.199Z,4.15
2022-11-15T19:01:37.564Z,3.90
2022-11-15T19:04:11.439Z,4.05
2022-11-15T19:06:40.140Z,3.97
2022-11-15T19:09:08.597Z,4.70
2022-11-15T19:11:37.524Z,4.18
2022-11-15T19:14:09.544Z,4.20
2022-11-15T19:16:41.842Z,3.65
2022-11-15T19:19:13.729Z,3.40
2022-11-15T19:21:42.699Z,3.20
2022-11-15T19:26:56.599Z,2.90
2022-11-15T19:29:27.791Z,2.75
2022-11-15T19:31:56.472Z,3.17
2022-11-15T19:34:32.625Z,3.00
2022-11-15T19:37:01.383Z,3.83
2022-11-15T19:39:31.317Z,3.40
2022-11-15T19:42:00.356Z,2.90
2022-11-15T19:44:28.415Z,2.53
2022-11-15T19:46:55.031Z,3.00
2022-11-15T19:49:22.255Z,8.60
2022-11-15T19:51:49.154Z,5.50
2022-11-15T19:54:17.178Z,3.60
2022-11-15T19:56:43.910Z,2.92
2022-11-15T19:59:11.879Z,2.95
2022-11-15T20:01:39.387Z,2.58
2022-11-15T20:04:07.934Z,2.72
2022-11-15T20:06:37.729Z,2.75
2022-11-15T20:09:04.371Z,3.10
2022-11-15T20:11:31.062Z,2.65
2022-11-15T20:14:04.956Z,3.10
2022-11-15T20:16:31.647Z,3.75
2022-11-15T20:18:58.367Z,3.15
2022-11-15T20:21:25.298Z,3.00
2022-11-15T20:23:52.405Z,2.85
2022-11-15T20:26:20.478Z,3.28
2022-11-15T20:28:48.237Z,3.45
2022-11-15T20:31:16.027Z,3.00
2022-11-15T20:33:42.715Z,3.10
2022-11-15T20:36:14.464Z,3.83
2022-11-15T20:38:41.768Z,2.60
2022-11-15T20:41:10.874Z,2.80
2022-11-15T20:43:38.283Z,3.10
2022-11-15T20:46:05.694Z,3.00
2022-11-15T20:48:33.210Z,3.00
2022-11-15T20:51:27.103Z,3.05
2022-11-15T20:53:54.307Z,3.28
2022-11-15T20:56:22.321Z,2.92
2022-11-15T20:58:54.949Z,2.75
2022-11-15T21:01:24.872Z,3.05
2022-11-15T21:03:56.352Z,3.00
2022-11-15T21:06:24.954Z,2.97
2022-11-15T21:09:11.310Z,2.83
2022-11-15T21:11:56.576Z,3.13
2022-11-15T21:14:23.333Z,2.88
2022-11-15T21:16:49.972Z,3.08
2022-11-15T21:19:16.930Z,3.08
2022-11-15T21:21:43.559Z,3.10
2022-11-15T21:24:10.339Z,2.80
2022-11-15T21:26:37.629Z,3.10
2022-11-15T21:29:05.164Z,3.35
2022-11-15T21:31:32.491Z,3.03
2022-11-15T21:34:02.387Z,3.55
2022-11-15T21:36:29.238Z,3.08
2022-11-15T21:38:55.845Z,3.38
2022-11-15T21:41:22.462Z,3.50
2022-11-15T21:43:49.120Z,3.90
2022-11-15T21:46:15.691Z,3.55
2022-11-15T21:48:42.458Z,3.88
2022-11-15T21:51:11.570Z,3.75
2022-11-15T21:53:38.313Z,4.10
2022-11-15T21:56:05.299Z,4.00
2022-11-15T21:58:32.284Z,3.88
2022-11-15T22:01:17.934Z,4.40
2022-11-15T22:03:44.915Z,3.97
2022-11-15T22:06:17.262Z,4.65
2022-11-15T22:08:45.621Z,4.50
2022-11-15T22:11:12.926Z,4.60
2022-11-15T22:13:39.571Z,4.45
2022-11-15T22:16:07.136Z,5.30
2022-11-15T22:18:34.044Z,5.28
2022-11-15T22:21:03.279Z,5.40
2022-11-15T22:23:31.702Z,5.78
2022-11-15T22:25:58.687Z,5.88
2022-11-15T22:28:25.758Z,5.55
2022-11-15T22:30:54.164Z,5.93
2022-11-15T22:33:23.895Z,5.90
2022-11-15T22:35:50.832Z,5.70
2022-11-15T22:38:17.957Z,6.10
2022-11-15T22:40:45.080Z,6.05
2022-11-15T22:43:13.266Z,5.85
2022-11-15T22:45:57.789Z,5.68
2022-11-15T22:48:27.365Z,5.45
2022-11-15T22:50:54.152Z,5.70
2022-11-15T22:53:21.753Z,5.28
2022-11-15T22:55:53.137Z,5.88
2022-11-15T22:58:21.635Z,5.72
2022-11-15T23:00:53.207Z,6.05
2022-11-15T23:03:20.898Z,6.50
2022-11-15T23:05:49.381Z,5.70
2022-11-15T23:08:16.651Z,5.57
2022-11-15T23:11:02.306Z,5.00
2022-11-15T23:13:30.998Z,5.70
2022-11-15T23:16:34.433Z,5.18
2022-11-15T23:19:07.608Z,5.20
2022-11-15T23:22:04.105Z,4.65
2022-11-15T23:24:32.055Z,4.95
2022-11-15T23:27:01.841Z,4.18
2022-11-15T23:29:29.198Z,4.57
2022-11-15T23:32:15.047Z,4.65
2022-11-15T23:34:44.405Z,4.82
2022-11-15T23:37:13.253Z,4.60
2022-11-15T23:39:40.086Z,4.50
2022-11-15T23:42:09.407Z,4.30
2022-11-15T23:44:37.067Z,4.38
2022-11-15T23:47:03.709Z,4.30
2022-11-15T23:49:30.364Z,4.25
2022-11-15T23:51:56.976Z,3.78
2022-11-15T23:54:23.558Z,3.63
2022-11-15T23:56:50.162Z,3.45
2022-11-15T23:59:16.876Z,3.10
